createdAt,value
2018-10-05T09:22:27.158Z,88.01
2018-10-05T09:23:26.953Z,86.89
2018-10-05T09:24:26.911Z,85.48
2018-10-05T09:25:27.092Z,84.08
2018-10-05T09:26:27.069Z,84.28
2018-10-05T09:27:26.855Z,87.13
2018-10-05T09:28:26.826Z,86.71
2018-10-05T09:29:27.008Z,89.65
2018-10-05T09:30:26.823Z,89.51
2018-10-05T09:31:26.969Z,90.09
2018-10-05T09:32:26.958Z,91.39
2018-10-05T09:33:26.928Z,91.35
2018-10-05T09:34:26.916Z,93.13
2018-10-05T09:35:27.093Z,92.12
2018-10-05T09:36:26.881Z,93.37
2018-10-05T09:37:29.516Z,90.19
2018-10-05T09:38:26.835Z,89.07
2018-10-05T09:39:26.832Z,86.85
2018-10-05T09:40:26.600Z,87.00
2018-10-05T09:41:26.789Z,88.45
2018-10-05T09:42:26.561Z,91.73
2018-10-05T09:43:26.755Z,89.07
2018-10-05T09:44:26.726Z,89.31
2018-10-05T09:45:26.508Z,89.99
2018-10-05T09:46:26.697Z,88.20
2018-10-05T09:47:26.674Z,87.43
2018-10-05T09:48:26.668Z,86.75
2018-10-05T09:49:27.650Z,86.85
2018-10-05T09:50:26.630Z,88.20
2018-10-05T09:51:26.608Z,86.45
2018-10-05T09:52:26.743Z,85.15
2018-10-05T09:53:26.368Z,86.36
2018-10-05T09:54:26.557Z,86.21
2018-10-05T09:55:26.537Z,85.01
2018-10-05T09:56:29.347Z,86.27
2018-10-05T09:57:26.499Z,84.32
2018-10-05T09:58:26.495Z,82.93
2018-10-05T09:59:29.896Z,82.87
2018-10-05T10:00:26.453Z,83.36
2018-10-05T10:01:26.441Z,82.87
2018-10-05T10:02:26.416Z,83.36
2018-10-05T10:03:26.417Z,85.53
2018-10-05T10:04:26.380Z,85.44
2018-10-05T10:05:26.169Z,85.48
2018-10-05T10:07:08.500Z,84.52
2018-10-05T10:08:50.639Z,84.47
2018-10-05T10:09:50.437Z,85.15
2018-10-05T10:10:54.039Z,84.63
2018-10-05T10:11:50.595Z,85.98
2018-10-05T10:13:32.731Z,87.00
2018-10-05T10:14:32.515Z,86.02
2018-10-05T10:15:35.347Z,83.52
2018-10-05T10:17:16.048Z,84.05
2018-10-05T10:18:15.632Z,83.85
2018-10-05T10:19:14.599Z,85.94
2018-10-05T10:20:15.398Z,85.49
2018-10-05T10:21:15.985Z,84.20
2018-10-05T10:22:14.754Z,82.84
2018-10-05T10:23:14.733Z,83.91
2018-10-05T10:24:17.946Z,84.16
2018-10-05T10:25:14.701Z,84.16
2018-10-05T10:26:14.480Z,86.32
2018-10-05T10:27:14.463Z,84.97
2018-10-05T10:30:21.113Z,85.70
2018-10-05T10:31:21.098Z,88.45
2018-10-05T10:33:03.233Z,87.82
2018-10-05T10:34:45.392Z,87.71
2018-10-05T10:35:46.570Z,86.79
2018-10-05T10:37:27.495Z,85.69
2018-10-05T10:38:27.277Z,83.37
2018-10-05T10:39:27.252Z,85.40
2018-10-05T10:40:27.246Z,86.03
2018-10-05T10:41:27.217Z,87.47
2018-10-05T10:42:27.224Z,83.49
2018-10-05T10:43:27.179Z,82.14
2018-10-05T10:44:27.165Z,81.52
2018-10-05T10:45:27.150Z,81.52
2018-10-05T10:47:51.906Z,82.14
2018-10-05T10:48:51.899Z,80.98
2018-10-05T10:49:51.873Z,80.05
2018-10-05T10:50:51.657Z,79.85
2018-10-05T10:57:16.051Z,78.75
2018-10-05T10:57:39.380Z,80.24
2018-10-05T10:58:35.540Z,78.59
2018-10-05T10:59:35.529Z,79.24
2018-10-05T11:00:35.527Z,78.36
2018-10-05T11:01:35.288Z,79.33
2018-10-05T11:02:35.475Z,78.94
2018-10-05T11:03:35.267Z,78.02
2018-10-05T11:04:35.308Z,78.17
2018-10-05T11:05:35.222Z,78.17
2018-10-05T11:06:35.211Z,79.08
2018-10-05T11:07:35.208Z,77.24
2018-10-05T11:09:17.533Z,78.81
2018-10-05T11:11:17.503Z,78.17
2018-10-05T11:12:59.641Z,77.63
2018-10-05T11:13:59.626Z,79.62
2018-10-05T11:14:59.611Z,78.66
2018-10-05T11:15:59.594Z,78.41
2018-10-05T11:18:23.895Z,79.29
2018-10-05T11:19:23.877Z,79.54
2018-10-05T11:20:23.871Z,79.24
2018-10-05T11:21:23.849Z,77.53
2018-10-05T11:22:23.829Z,77.84
2018-10-05T11:23:23.851Z,78.36
2018-10-05T11:24:24.402Z,78.91
2018-10-05T11:26:23.763Z,78.13
2018-10-05T11:27:23.746Z,76.66
2018-10-05T11:28:23.733Z,75.60
2018-10-05T11:29:23.713Z,76.04
2018-10-05T11:30:23.700Z,75.75
2018-10-05T11:31:23.681Z,74.69
2018-10-05T11:32:23.664Z,76.24
2018-10-05T11:33:23.649Z,76.55
2018-10-05T11:34:23.632Z,76.78
2018-10-05T11:35:23.623Z,77.50
2018-10-05T11:36:23.400Z,76.82
2018-10-05T11:37:23.383Z,76.72
2018-10-05T11:38:23.570Z,75.89
2018-10-05T11:39:23.555Z,74.59
2018-10-05T11:40:23.537Z,75.81
2018-10-05T11:41:23.526Z,74.88
2018-10-05T11:42:23.507Z,75.27
2018-10-05T11:43:26.111Z,74.59
2018-10-05T11:44:23.483Z,74.49
2018-10-05T11:45:23.461Z,74.21
2018-10-05T11:46:23.508Z,73.47
2018-10-05T11:47:23.225Z,72.83
2018-10-05T11:48:23.218Z,72.79
2018-10-05T11:49:23.405Z,72.60
2018-10-05T11:50:23.380Z,72.08
2018-10-05T11:51:23.364Z,73.10
2018-10-05T11:52:23.206Z,73.49
2018-10-05T11:53:23.131Z,72.66
2018-10-05T11:54:23.117Z,73.43
2018-10-05T11:55:23.100Z,73.63
2018-10-05T11:56:23.091Z,74.49
2018-10-05T11:57:23.070Z,73.97
2018-10-05T11:58:23.102Z,75.07
2018-10-05T11:59:23.442Z,75.43
2018-10-05T12:00:23.024Z,76.24
2018-10-05T12:01:23.008Z,75.85
2018-10-05T12:02:23.032Z,74.96
2018-10-05T12:03:23.147Z,72.22
2018-10-05T12:04:25.784Z,70.37
2018-10-05T12:05:23.148Z,71.92
2018-10-05T12:06:23.135Z,75.13
2018-10-05T12:07:23.114Z,76.43
2018-10-05T12:08:23.161Z,79.00
2018-10-05T12:09:23.084Z,78.03
2018-10-05T12:10:23.069Z,78.27
2018-10-05T12:11:23.052Z,77.59
2018-10-05T12:12:23.040Z,78.31
2018-10-05T12:13:22.940Z,76.18
2018-10-05T12:14:23.010Z,75.98
2018-10-05T12:15:22.794Z,75.34
2018-10-05T12:16:22.774Z,73.79
2018-10-05T12:17:22.756Z,74.73
2018-10-05T12:18:22.852Z,75.89
2018-10-05T12:19:22.934Z,75.98
2018-10-05T12:20:22.912Z,75.56
2018-10-05T12:21:22.899Z,77.53
2018-10-05T12:22:22.897Z,76.28
2018-10-05T12:23:22.969Z,75.21
2018-10-05T12:24:22.850Z,74.63
2018-10-05T12:25:22.833Z,73.75
2018-10-05T12:26:22.624Z,74.40
2018-10-05T12:27:22.600Z,73.72
2018-10-05T12:28:22.666Z,74.75
2018-10-05T12:29:22.570Z,75.48
2018-10-05T12:30:22.555Z,76.10
2018-10-05T12:31:22.538Z,76.26
2018-10-05T12:32:22.524Z,78.33
2018-10-05T12:33:22.590Z,77.75
2018-10-05T12:34:22.493Z,77.20
2018-10-05T12:35:22.484Z,75.65
2018-10-05T12:36:22.461Z,76.49
2018-10-05T12:37:22.444Z,76.87
2018-10-05T12:38:22.429Z,77.17
2018-10-05T12:39:22.412Z,76.97
2018-10-05T12:40:22.397Z,77.36
2018-10-05T12:41:22.381Z,78.71
2018-10-05T12:42:22.366Z,77.17
2018-10-05T12:43:22.658Z,77.42
2018-10-05T12:44:22.332Z,78.09
2018-10-05T12:45:22.321Z,78.00
2018-10-05T12:46:22.310Z,78.71
2018-10-05T12:47:22.288Z,77.45
2018-10-05T12:48:22.472Z,77.22
2018-10-05T12:49:22.255Z,77.80
2018-10-05T12:50:22.238Z,77.13
2018-10-05T12:51:22.224Z,77.17
2018-10-05T12:52:22.204Z,78.71
2018-10-05T12:53:22.190Z,76.62
2018-10-05T12:54:22.173Z,77.65
2018-10-05T12:55:22.156Z,78.03
2018-10-05T12:56:22.141Z,79.29
2018-10-05T12:57:22.124Z,78.09
2018-10-05T12:58:22.110Z,78.09
2018-10-05T12:59:22.093Z,79.35
2018-10-05T13:00:22.079Z,80.22
2018-10-05T13:01:22.063Z,78.09
2018-10-05T13:02:22.248Z,78.77
2018-10-05T13:03:22.380Z,76.64
2018-10-05T13:04:22.013Z,77.42
2018-10-05T13:05:22.204Z,76.84
2018-10-05T13:06:21.981Z,76.45
2018-10-05T13:07:21.964Z,76.26
2018-10-05T13:08:21.952Z,76.55
2018-10-05T13:09:21.933Z,77.13
2018-10-05T13:10:21.915Z,76.26
2018-10-05T13:11:21.899Z,75.87
2018-10-05T13:12:21.884Z,76.16
2018-10-05T13:13:21.873Z,76.06
2018-10-05T13:14:21.851Z,75.91
2018-10-05T13:15:21.834Z,75.23
2018-10-05T13:16:21.817Z,75.78
2018-10-05T13:17:21.803Z,76.39
2018-10-05T13:18:21.790Z,74.90
2018-10-05T13:19:21.770Z,76.61
2018-10-05T13:20:21.756Z,76.06
2018-10-05T13:21:21.735Z,76.55
2018-10-05T13:22:21.732Z,76.16
2018-10-05T13:23:21.704Z,75.97
2018-10-05T13:24:21.685Z,75.39
2018-10-05T13:25:21.669Z,75.10
2018-10-05T13:26:21.663Z,75.48
2018-10-05T13:27:21.635Z,76.06
2018-10-05T13:28:21.819Z,75.58
2018-10-05T13:30:03.974Z,75.45
2018-10-05T13:31:03.943Z,74.96
2018-10-05T13:32:03.725Z,76.12
2018-10-05T13:33:03.706Z,75.89
2018-10-05T13:34:04.544Z,76.67
2018-10-05T13:35:03.873Z,76.47
2018-10-05T13:36:03.655Z,76.03
2018-10-05T13:37:03.633Z,75.51
2018-10-05T13:38:03.621Z,75.79
2018-10-05T13:39:03.597Z,76.57
2018-10-05T13:40:03.580Z,75.89
2018-10-05T13:41:03.569Z,75.89
2018-10-05T13:42:03.656Z,77.05
2018-10-05T13:43:03.529Z,76.32
2018-10-05T13:44:03.514Z,76.03
2018-10-05T13:45:03.498Z,75.84
2018-10-05T13:46:03.483Z,75.06
2018-10-05T13:47:03.457Z,75.54
2018-10-05T13:48:03.439Z,75.29
2018-10-05T13:49:03.422Z,75.26
2018-10-05T13:50:03.408Z,76.16
2018-10-05T13:51:03.387Z,75.06
2018-10-05T13:52:03.371Z,75.10
2018-10-05T13:53:03.352Z,74.90
2018-10-05T13:54:03.339Z,74.58
2018-10-05T13:55:03.317Z,75.74
2018-10-05T13:56:03.305Z,75.93
2018-10-05T13:57:03.282Z,75.64
2018-10-05T13:58:03.265Z,74.58
2018-10-05T13:59:03.249Z,75.26
2018-10-05T14:00:03.232Z,75.54
2018-10-05T14:01:03.213Z,75.26
2018-10-05T14:02:03.199Z,74.58
2018-10-05T14:03:03.380Z,75.06
2018-10-05T14:04:03.361Z,74.87
2018-10-05T14:05:03.345Z,74.58
2018-10-05T14:06:03.328Z,74.38
2018-10-05T14:07:03.330Z,74.38
2018-10-05T14:08:03.499Z,74.29
2018-10-05T14:09:03.274Z,74.13
2018-10-05T14:10:03.259Z,72.97
2018-10-05T14:11:03.845Z,73.22
2018-10-05T14:12:03.226Z,73.32
2018-10-05T14:13:03.005Z,73.52
2018-10-05T14:14:03.192Z,73.71
2018-10-05T14:15:02.973Z,73.32
2018-10-05T14:16:02.948Z,74.68
2018-10-05T14:17:02.936Z,74.38
2018-10-05T14:18:02.912Z,73.16
2018-10-05T14:19:02.946Z,73.80
2018-10-05T14:20:02.881Z,73.65
2018-10-05T14:21:02.858Z,72.97
2018-10-05T14:22:02.845Z,72.78
2018-10-05T14:23:02.821Z,71.58
2018-10-05T14:24:02.805Z,72.74
2018-10-05T14:25:02.785Z,73.61
2018-10-05T14:26:02.771Z,74.00
2018-10-05T14:27:02.756Z,73.28
2018-10-05T14:28:02.732Z,74.16
2018-10-05T14:29:02.716Z,74.10
2018-10-05T14:30:02.702Z,73.42
2018-10-05T14:31:02.677Z,72.94
2018-10-05T14:32:02.659Z,72.74
2018-10-05T14:33:02.647Z,74.19
2018-10-05T14:34:02.622Z,74.23
2018-10-05T14:35:02.605Z,72.49
2018-10-05T14:36:02.588Z,73.71
2018-10-05T14:37:02.568Z,73.32
2018-10-05T14:38:02.559Z,73.32
2018-10-05T14:39:02.531Z,73.80
2018-10-05T14:40:02.515Z,74.48
2018-10-05T14:41:02.494Z,75.35
2018-10-05T14:42:02.477Z,74.58
2018-10-05T14:43:02.524Z,74.16
2018-10-05T14:44:02.438Z,74.38
2018-10-05T14:45:02.420Z,73.90
2018-10-05T14:46:02.607Z,74.19
2018-10-05T14:47:02.382Z,73.32
2018-10-05T14:48:02.364Z,72.97
2018-10-05T14:49:02.345Z,74.06
2018-10-05T14:50:02.331Z,74.48
2018-10-05T14:51:02.306Z,73.80
2018-10-05T14:52:02.291Z,74.64
2018-10-05T14:53:02.273Z,74.06
2018-10-05T14:54:02.252Z,75.12
2018-10-05T14:55:02.434Z,74.77
2018-10-05T14:56:02.417Z,75.22
2018-10-05T14:57:02.449Z,75.70
2018-10-05T14:58:02.378Z,75.31
2018-10-05T14:59:02.359Z,75.79
2018-10-05T15:00:04.961Z,75.60
2018-10-05T15:01:02.321Z,76.09
2018-10-05T15:02:02.304Z,75.99
2018-10-05T15:03:02.282Z,75.85
2018-10-05T15:04:02.262Z,76.95
2018-10-05T15:05:02.244Z,77.92
2018-10-05T15:06:02.022Z,77.15
2018-10-05T15:07:02.065Z,77.34
2018-10-05T15:08:01.982Z,77.25
2018-10-05T15:09:02.165Z,77.48
2018-10-05T15:10:02.146Z,76.03
2018-10-05T15:11:01.924Z,75.74
2018-10-05T15:12:01.904Z,75.41
2018-10-05T15:13:01.919Z,75.51
2018-10-05T15:14:01.882Z,75.64
2018-10-05T15:15:01.847Z,75.99
2018-10-05T15:16:01.827Z,75.70
2018-10-05T15:17:01.809Z,75.89
2018-10-05T15:18:01.788Z,75.70
2018-10-05T15:19:01.971Z,76.37
2018-10-05T15:20:01.749Z,76.18
2018-10-05T15:21:01.728Z,76.57
2018-10-05T15:22:01.917Z,75.89
2018-10-05T15:23:01.890Z,76.76
2018-10-05T15:24:01.669Z,76.37
2018-10-05T15:25:01.851Z,76.47
2018-10-05T15:26:01.832Z,76.57
2018-10-05T15:27:01.811Z,77.83
2018-10-05T15:28:01.590Z,77.53
2018-10-05T15:29:01.772Z,77.34
2018-10-05T15:30:05.388Z,77.34
2018-10-05T15:31:01.534Z,78.27
2018-10-05T15:32:01.724Z,78.27
2018-10-05T15:33:01.491Z,79.14
2018-10-05T15:34:01.479Z,78.56
2018-10-05T15:35:01.652Z,79.14
2018-10-05T15:36:01.429Z,78.66
2018-10-05T15:37:01.612Z,78.46
2018-10-05T15:38:01.390Z,78.85
2018-10-05T15:39:04.459Z,79.24
2018-10-05T15:40:01.551Z,79.24
2018-10-05T15:41:04.161Z,79.49
2018-10-05T15:42:01.511Z,79.52
2018-10-05T15:43:01.288Z,79.52
2018-10-05T15:44:01.470Z,80.39
2018-10-05T15:45:01.455Z,79.62
2018-10-05T15:46:01.430Z,79.62
2018-10-05T15:47:01.210Z,79.19
2018-10-05T15:48:01.186Z,80.39
2018-10-05T15:49:01.166Z,79.81
2018-10-05T15:50:01.146Z,80.10
2018-10-05T15:51:01.125Z,80.58
2018-10-05T15:52:01.104Z,80.54
2018-10-05T15:53:01.125Z,81.02
2018-10-05T15:54:01.063Z,82.48
2018-10-05T15:55:01.041Z,81.99
2018-10-05T15:56:01.022Z,82.18
2018-10-05T15:57:01.203Z,81.60
2018-10-05T15:58:00.981Z,81.60
2018-10-05T15:59:01.016Z,82.09
2018-10-05T16:00:00.939Z,81.99
2018-10-05T16:01:00.919Z,82.18
2018-10-05T16:02:00.898Z,82.76
2018-10-05T16:03:00.877Z,83.01
2018-10-05T16:04:00.857Z,83.30
2018-10-05T16:05:00.838Z,83.40
2018-10-05T16:06:00.883Z,83.88
2018-10-05T16:07:00.796Z,83.88
2018-10-05T16:08:00.775Z,83.59
2018-10-05T16:09:00.753Z,84.17
2018-10-05T16:10:00.937Z,83.94
2018-10-05T16:11:03.534Z,85.03
2018-10-05T16:12:00.926Z,85.47
2018-10-05T16:13:00.669Z,85.67
2018-10-05T16:14:00.852Z,85.86
2018-10-05T16:15:00.630Z,86.25
2018-10-05T16:16:00.638Z,86.63
2018-10-05T16:17:03.408Z,86.82
2018-10-05T16:18:00.765Z,87.07
2018-10-05T16:19:00.743Z,87.26
2018-10-05T16:20:00.525Z,87.55
2018-10-05T16:21:00.701Z,88.23
2018-10-05T16:22:42.833Z,88.76
2018-10-05T16:23:42.811Z,89.09
2018-10-05T16:24:42.846Z,89.82
2018-10-05T16:25:42.565Z,90.20
2018-10-05T16:26:42.747Z,91.17
2018-10-05T16:27:42.724Z,91.07
2018-10-05T16:28:42.501Z,91.75
2018-10-05T16:29:42.478Z,92.18
2018-10-05T16:30:42.659Z,92.95
2018-10-05T16:31:42.637Z,93.53
2018-10-05T16:32:42.614Z,93.91
2018-10-05T16:33:42.390Z,94.87
2018-10-05T16:34:42.368Z,96.03
2018-10-05T16:35:42.349Z,96.42
2018-10-05T16:36:45.755Z,97.33
2018-10-05T16:37:43.349Z,98.00
2018-10-05T16:38:42.282Z,99.99
2018-10-05T16:39:42.460Z,99.99
2018-10-05T16:40:42.435Z,99.99
2018-10-05T16:41:42.210Z,99.99
2018-10-05T16:42:42.391Z,99.99
2018-10-05T16:43:42.197Z,99.99
2018-10-05T16:44:42.141Z,99.99
2018-10-05T16:45:42.120Z,99.99
2018-10-05T16:46:42.117Z,99.99
2018-10-05T16:47:42.073Z,99.99
2018-10-05T16:48:42.054Z,99.99
2018-10-05T16:49:42.065Z,99.99
2018-10-05T16:50:42.209Z,99.99
2018-10-05T16:51:41.979Z,99.99
2018-10-05T16:52:41.960Z,99.99
2018-10-05T16:53:41.937Z,99.99
2018-10-05T16:54:41.909Z,99.99
2018-10-05T16:55:41.885Z,99.99
2018-10-05T16:56:41.863Z,99.99
2018-10-05T16:57:41.840Z,99.99
2018-10-05T16:58:41.820Z,99.99
2018-10-05T16:59:41.796Z,99.99
2018-10-05T17:00:41.767Z,99.99
2018-10-05T17:01:41.946Z,99.99
2018-10-05T17:02:41.923Z,99.99
2018-10-05T17:03:41.902Z,99.99
2018-10-05T17:04:41.680Z,99.99
2018-10-05T17:05:41.650Z,99.99
2018-10-05T17:06:41.632Z,99.99
2018-10-05T17:07:41.605Z,99.99
2018-10-05T17:08:41.580Z,99.99
2018-10-05T17:09:41.756Z,99.99
2018-10-05T17:10:41.652Z,99.99
2018-10-05T17:11:41.507Z,99.99
2018-10-05T17:12:41.481Z,99.99
2018-10-05T17:13:41.458Z,99.99
2018-10-05T17:14:41.435Z,99.99
2018-10-05T17:15:41.410Z,99.99
2018-10-05T17:16:41.385Z,99.99
2018-10-05T17:17:41.564Z,99.99
2018-10-05T17:18:41.542Z,99.99
2018-10-05T17:19:41.319Z,99.99
2018-10-05T17:20:41.288Z,99.99
2018-10-05T17:21:41.270Z,99.99
2018-10-05T17:22:41.239Z,99.99
2018-10-05T17:23:41.268Z,99.99
2018-10-05T17:24:41.193Z,99.99
2018-10-05T17:25:41.167Z,99.99
2018-10-05T17:26:41.147Z,99.99
2018-10-05T17:27:41.117Z,99.99
2018-10-05T17:28:41.304Z,99.99
2018-10-05T17:29:41.069Z,99.99
2018-10-05T17:30:41.045Z,99.99
2018-10-05T17:31:41.020Z,99.99
2018-10-05T17:32:40.994Z,99.99
2018-10-05T17:33:41.174Z,99.99
2018-10-05T17:34:41.149Z,99.99
2018-10-05T17:35:40.922Z,99.99
2018-10-05T17:36:40.903Z,99.99
2018-10-05T17:37:40.873Z,99.99
2018-10-05T17:38:40.856Z,99.99
2018-10-05T17:39:40.824Z,99.99
2018-10-05T17:40:40.801Z,99.99
2018-10-05T17:41:40.778Z,99.99
2018-10-05T17:42:40.750Z,99.99
2018-10-05T17:43:40.726Z,99.99
2018-10-05T17:44:40.701Z,99.99
2018-10-05T17:45:40.679Z,99.99
2018-10-05T17:46:40.803Z,99.99
2018-10-05T17:47:40.628Z,99.99
2018-10-05T17:48:40.606Z,99.99
2018-10-05T17:49:40.579Z,99.99
2018-10-05T17:50:40.555Z,99.99
2018-10-05T17:51:40.529Z,99.99
2018-10-05T17:52:40.509Z,99.99
2018-10-05T17:53:40.480Z,99.99
2018-10-05T17:54:40.456Z,99.99
2018-10-05T17:55:40.508Z,99.99
2018-10-05T17:56:40.411Z,99.99
2018-10-05T17:57:40.383Z,99.99
2018-10-05T17:58:40.361Z,99.99
2018-10-05T17:59:40.331Z,99.99
2018-10-05T18:00:40.309Z,99.99
2018-10-05T18:01:40.303Z,99.99
2018-10-05T18:02:40.262Z,99.99
2018-10-05T18:03:40.283Z,99.99
2018-10-05T18:04:40.212Z,99.99
2018-10-05T18:05:40.188Z,99.99
2018-10-05T18:06:40.160Z,99.99
2018-10-05T18:07:40.133Z,99.99
2018-10-05T18:08:40.109Z,99.99
2018-10-05T18:09:40.084Z,99.99
2018-10-05T18:10:40.060Z,99.99
2018-10-05T18:11:40.037Z,99.99
2018-10-05T18:12:40.009Z,99.99
2018-10-05T18:13:39.984Z,99.99
2018-10-05T18:14:40.017Z,99.99
2018-10-05T18:15:39.937Z,99.99
2018-10-05T18:16:39.909Z,99.99
2018-10-05T18:17:39.884Z,99.99
2018-10-05T18:18:39.861Z,99.99
2018-10-05T18:19:39.837Z,99.99
2018-10-05T18:20:39.809Z,99.99
2018-10-05T18:21:39.785Z,99.99
2018-10-05T18:22:39.761Z,99.99
2018-10-05T18:23:39.735Z,99.99
2018-10-05T18:24:39.711Z,99.99
2018-10-05T18:25:39.685Z,99.99
2018-10-05T18:26:39.661Z,99.99
2018-10-05T18:27:39.636Z,99.99
2018-10-05T18:28:39.613Z,99.99
2018-10-05T18:29:39.585Z,99.99
2018-10-05T18:30:39.562Z,99.99
2018-10-05T18:31:39.534Z,99.99
2018-10-05T18:32:39.510Z,99.99
2018-10-05T18:33:39.690Z,99.99
2018-10-05T18:34:39.460Z,99.99
2018-10-05T18:35:39.433Z,99.99
2018-10-05T18:36:39.414Z,99.99
2018-10-05T18:37:39.384Z,99.99
2018-10-05T18:38:39.359Z,99.99
2018-10-05T18:39:39.491Z,99.99
2018-10-05T18:40:39.309Z,99.99
2018-10-05T18:41:39.285Z,99.99
2018-10-05T18:42:39.262Z,99.99
2018-10-05T18:43:39.235Z,99.99
2018-10-05T18:44:39.215Z,99.99
2018-10-05T18:45:39.184Z,99.99
2018-10-05T18:46:39.160Z,99.99
2018-10-05T18:47:39.133Z,99.99
2018-10-05T18:48:39.110Z,99.99
2018-10-05T18:49:39.083Z,99.99
2018-10-05T18:50:39.061Z,99.99
2018-10-05T18:51:39.037Z,99.99
2018-10-05T18:52:39.007Z,99.99
2018-10-05T18:53:38.991Z,99.99
2018-10-05T18:54:38.957Z,99.99
2018-10-05T18:55:38.936Z,99.99
2018-10-05T18:56:38.906Z,99.99
2018-10-05T18:57:38.883Z,99.99
2018-10-05T18:58:38.859Z,99.99
2018-10-05T18:59:38.950Z,99.99
2018-10-05T19:00:38.805Z,99.99
2018-10-05T19:01:38.782Z,99.99
2018-10-05T19:02:38.757Z,99.99
2018-10-05T19:03:38.745Z,99.99
2018-10-05T19:04:38.703Z,99.99
2018-10-05T19:05:38.683Z,99.99
2018-10-05T19:06:38.654Z,99.99
2018-10-05T19:07:38.628Z,99.99
2018-10-05T19:08:38.602Z,99.99
2018-10-05T19:09:38.578Z,99.99
2018-10-05T19:10:38.553Z,99.99
2018-10-05T19:11:38.529Z,99.99
2018-10-05T19:12:38.504Z,99.99
2018-10-05T19:13:38.570Z,99.99
2018-10-05T19:14:38.451Z,99.99
2018-10-05T19:15:38.425Z,99.99
2018-10-05T19:16:38.402Z,99.99
2018-10-05T19:17:38.381Z,99.99
2018-10-05T19:18:38.349Z,99.99
2018-10-05T19:19:38.327Z,99.99
2018-10-05T19:20:38.298Z,99.99
2018-10-05T19:21:38.273Z,99.99
2018-10-05T19:22:38.254Z,99.99
2018-10-05T19:23:38.244Z,99.99
2018-10-05T19:24:38.196Z,99.99
2018-10-05T19:25:38.170Z,99.99
2018-10-05T19:26:38.411Z,99.99
2018-10-05T19:27:38.124Z,99.99
2018-10-05T19:28:38.094Z,99.99
2018-10-05T19:29:38.071Z,99.99
2018-10-05T19:30:38.043Z,99.99
2018-10-05T19:31:38.016Z,99.99
2018-10-05T19:32:37.996Z,99.99
2018-10-05T19:33:37.967Z,99.99
2018-10-05T19:34:37.957Z,99.99
2018-10-05T19:35:37.914Z,99.99
2018-10-05T19:36:37.944Z,99.99
2018-10-05T19:37:37.865Z,99.99
2018-10-05T19:38:37.843Z,99.99
2018-10-05T19:39:37.812Z,99.99
2018-10-05T19:40:37.787Z,99.99
2018-10-05T19:41:37.763Z,99.99
2018-10-05T19:42:37.749Z,99.99
2018-10-05T19:43:37.710Z,99.99
2018-10-05T19:44:37.685Z,99.99
2018-10-05T19:45:37.661Z,99.99
2018-10-05T19:46:37.634Z,99.99
2018-10-05T19:47:37.607Z,99.99
2018-10-05T19:48:37.585Z,99.99
2018-10-05T19:49:37.562Z,99.99
2018-10-05T19:50:37.531Z,99.99
2018-10-05T19:51:37.515Z,99.99
2018-10-05T19:52:37.480Z,99.99
2018-10-05T19:53:37.569Z,99.99
2018-10-05T19:54:37.427Z,99.99
2018-10-05T19:55:37.403Z,99.99
2018-10-05T19:56:37.377Z,99.99
2018-10-05T19:57:37.350Z,99.99
2018-10-05T19:58:37.325Z,99.99
2018-10-05T19:59:37.298Z,99.99
2018-10-05T20:00:37.474Z,99.99
2018-10-05T20:01:37.247Z,99.99
2018-10-05T20:02:37.224Z,99.99
2018-10-05T20:03:37.199Z,99.99
2018-10-05T20:04:37.172Z,99.99
2018-10-05T20:05:37.147Z,99.99
2018-10-05T20:06:37.117Z,99.99
2018-10-05T20:07:37.093Z,99.99
2018-10-05T20:08:37.072Z,99.99
2018-10-05T20:09:37.045Z,99.99
2018-10-05T20:10:37.020Z,99.99
2018-10-05T20:11:36.987Z,99.99
2018-10-05T20:12:36.961Z,99.99
2018-10-05T20:13:36.936Z,99.99
2018-10-05T20:14:36.910Z,99.99
2018-10-05T20:15:36.883Z,99.99
2018-10-05T20:16:36.857Z,99.99
2018-10-05T20:17:36.853Z,99.99
2018-10-05T20:18:36.969Z,99.99
2018-10-05T20:19:36.778Z,99.99
2018-10-05T20:20:36.753Z,99.99
2018-10-05T20:21:36.731Z,99.99
2018-10-05T20:22:36.705Z,99.99
2018-10-05T20:23:36.675Z,99.99
2018-10-05T20:24:36.652Z,99.99
2018-10-05T20:25:36.625Z,99.99
2018-10-05T20:26:36.597Z,99.99
2018-10-05T20:27:36.574Z,99.99
2018-10-05T20:28:36.547Z,99.99
2018-10-05T20:29:36.518Z,99.99
2018-10-05T20:30:36.492Z,99.99
2018-10-05T20:31:36.468Z,99.99
2018-10-05T20:32:36.503Z,99.99
2018-10-05T20:33:36.416Z,99.99
2018-10-05T20:34:36.387Z,99.99
2018-10-05T20:35:36.370Z,99.99
2018-10-05T20:36:36.527Z,99.99
2018-10-05T20:37:36.625Z,99.99
2018-10-05T20:38:36.354Z,99.99
2018-10-05T20:39:36.255Z,99.99
2018-10-05T20:40:36.232Z,99.99
2018-10-05T20:41:36.203Z,99.99
2018-10-05T20:42:36.177Z,99.99
2018-10-05T20:43:36.150Z,99.99
2018-10-05T20:44:36.164Z,99.99
2018-10-05T20:45:36.104Z,99.99
2018-10-05T20:46:36.072Z,99.99
2018-10-05T20:47:36.045Z,99.99
2018-10-05T20:48:36.019Z,99.99
2018-10-05T20:49:35.994Z,99.99
2018-10-05T20:50:35.969Z,99.99
2018-10-05T20:51:36.011Z,99.99
2018-10-05T20:52:35.914Z,99.99
2018-10-05T20:53:35.888Z,99.99
2018-10-05T20:54:35.863Z,99.99
2018-10-05T20:55:35.836Z,99.99
2018-10-05T20:56:35.810Z,99.99
2018-10-05T20:57:35.783Z,99.99
2018-10-05T20:58:35.756Z,99.99
2018-10-05T20:59:35.728Z,99.99
2018-10-05T21:00:35.704Z,99.99
2018-10-05T21:01:35.677Z,99.99
2018-10-05T21:02:35.651Z,99.99
2018-10-05T21:03:35.624Z,99.99
2018-10-05T21:04:35.600Z,99.99
2018-10-05T21:05:35.570Z,99.99
2018-10-05T21:06:35.544Z,99.99
2018-10-05T21:07:35.722Z,99.99
2018-10-05T21:08:35.491Z,99.99
2018-10-05T21:10:17.970Z,99.99
2018-10-05T21:11:17.789Z,99.99
2018-10-05T21:12:17.764Z,99.99
2018-10-05T21:13:17.737Z,99.99
2018-10-05T21:14:18.529Z,99.99
2018-10-05T21:15:17.717Z,99.99
2018-10-05T21:16:17.455Z,99.99
2018-10-05T21:17:17.429Z,99.95
2018-10-05T21:18:17.403Z,99.99
2018-10-05T21:19:17.577Z,99.99
2018-10-05T21:20:17.349Z,99.66
2018-10-05T21:21:17.322Z,98.90
2018-10-05T21:22:17.296Z,99.28
2018-10-05T21:23:17.470Z,98.99
2018-10-05T21:24:17.454Z,98.90
2018-10-05T21:25:18.024Z,98.80
2018-10-05T21:26:17.395Z,98.33
2018-10-05T21:27:59.515Z,97.75
2018-10-05T21:29:41.637Z,97.28
2018-10-05T21:31:23.756Z,96.70
2018-10-05T21:32:23.735Z,96.32
2018-10-05T21:34:06.002Z,96.37
2018-10-05T21:36:30.327Z,96.46
2018-10-05T21:37:30.101Z,96.66
2018-10-05T21:38:30.122Z,96.66
2018-10-05T21:39:29.838Z,96.37
2018-10-05T21:40:29.811Z,95.89
2018-10-05T21:41:29.783Z,96.17
2018-10-05T21:42:29.762Z,95.89
2018-10-05T21:43:29.732Z,96.46
2018-10-05T21:44:29.706Z,96.56
2018-10-05T21:45:29.676Z,96.37
2018-10-05T21:46:29.649Z,96.27
2018-10-05T21:47:29.621Z,96.37
2018-10-05T21:48:29.598Z,96.37
2018-10-05T21:49:29.570Z,96.56
2018-10-05T21:50:29.540Z,96.66
2018-10-05T21:51:29.686Z,96.66
2018-10-05T21:52:29.513Z,96.75
2018-10-05T21:53:29.523Z,96.56
2018-10-05T21:54:29.436Z,96.56
2018-10-05T21:55:29.411Z,96.56
2018-10-05T21:56:29.378Z,96.46
2018-10-05T21:57:29.349Z,96.46
2018-10-05T21:58:29.324Z,96.37
2018-10-05T21:59:29.299Z,96.75
2018-10-05T22:00:29.270Z,96.84
2018-10-05T22:01:29.244Z,96.84
2018-10-05T22:02:29.216Z,96.37
2018-10-05T22:03:29.191Z,96.46
2018-10-05T22:04:29.164Z,96.75
2018-10-05T22:05:29.135Z,96.56
2018-10-05T22:06:29.108Z,96.66
2018-10-05T22:07:29.082Z,96.37
2018-10-05T22:08:29.060Z,96.37
2018-10-05T22:09:29.026Z,96.46
2018-10-05T22:10:29.000Z,95.89
2018-10-05T22:11:28.973Z,95.70
2018-10-05T22:12:28.946Z,95.61
2018-10-05T22:13:28.918Z,96.17
2018-10-05T22:14:28.894Z,96.17
2018-10-05T22:15:28.864Z,95.79
2018-10-05T22:16:28.838Z,95.51
2018-10-05T22:17:28.811Z,95.51
2018-10-05T22:18:28.786Z,95.41
2018-10-05T22:19:28.825Z,95.22
2018-10-05T22:20:28.738Z,95.46
2018-10-05T22:21:28.702Z,94.98
2018-10-05T22:22:28.682Z,95.27
2018-10-05T22:23:28.647Z,94.84
2018-10-05T22:24:28.627Z,94.70
2018-10-05T22:25:28.594Z,94.51
2018-10-05T22:26:28.567Z,94.27
2018-10-05T22:27:28.540Z,94.65
2018-10-05T22:28:28.513Z,94.60
2018-10-05T22:29:28.485Z,94.65
2018-10-05T22:30:28.458Z,94.84
2018-10-05T22:31:28.436Z,95.12
2018-10-05T22:32:28.404Z,95.32
2018-10-05T22:33:28.378Z,95.51
2018-10-05T22:34:28.350Z,95.12
2018-10-05T22:35:28.324Z,95.41
2018-10-05T22:36:28.298Z,94.93
2018-10-05T22:37:28.269Z,94.98
2018-10-05T22:38:28.241Z,94.55